sensor_id;sensor_type;location;lat;lon;timestamp;pressure;altitude;pressure_sealevel;temperature;humidity
24610;BME280;12758;47.890;11.694;2022-07-23T00:01:21;93993.56;;;25.88;56.37
24610;BME280;12758;47.890;11.694;2022-07-23T00:03:47;93991.06;;;25.94;56.43
24610;BME280;12758;47.890;11.694;2022-07-23T00:06:14;93998.16;;;25.98;56.12
24610;BME280;12758;47.890;11.694;2022-07-23T00:08:40;93991.75;;;26.01;56.22
24610;BME280;12758;47.890;11.694;2022-07-23T00:11:06;93991.03;;;25.97;55.70
24610;BME280;12758;47.890;11.694;2022-07-23T00:13:32;93986.47;;;25.84;56.36
24610;BME280;12758;47.890;11.694;2022-07-23T00:15:58;93976.91;;;25.34;54.13
24610;BME280;12758;47.890;11.694;2022-07-23T00:18:24;93961.06;;;25.31;55.82
24610;BME280;12758;47.890;11.694;2022-07-23T00:20:51;93956.13;;;24.84;54.47
24610;BME280;12758;47.890;11.694;2022-07-23T00:23:17;93949.06;;;24.80;55.10
24610;BME280;12758;47.890;11.694;2022-07-23T00:25:43;93950.41;;;24.34;55.94
24610;BME280;12758;47.890;11.694;2022-07-23T00:28:10;93955.72;;;24.55;58.58
24610;BME280;12758;47.890;11.694;2022-07-23T00:30:37;93968.22;;;24.71;55.83
24610;BME280;12758;47.890;11.694;2022-07-23T00:33:05;93976.34;;;24.54;56.18
24610;BME280;12758;47.890;11.694;2022-07-23T00:35:34;93991.41;;;23.74;58.26
24610;BME280;12758;47.890;11.694;2022-07-23T00:38:02;93978.19;;;23.40;58.57
24610;BME280;12758;47.890;11.694;2022-07-23T00:40:28;93963.53;;;23.92;60.12
24610;BME280;12758;47.890;11.694;2022-07-23T00:42:55;93968.81;;;24.55;59.20
24610;BME280;12758;47.890;11.694;2022-07-23T00:45:21;93973.34;;;24.38;55.65
24610;BME280;12758;47.890;11.694;2022-07-23T00:47:48;93966.72;;;23.87;56.98
24610;BME280;12758;47.890;11.694;2022-07-23T00:50:14;93970.47;;;23.10;60.68
24610;BME280;12758;47.890;11.694;2022-07-23T00:52:40;93990.38;;;23.50;59.74
24610;BME280;12758;47.890;11.694;2022-07-23T00:55:08;94004.00;;;23.82;59.52
24610;BME280;12758;47.890;11.694;2022-07-23T00:57:34;94000.03;;;23.28;59.15
24610;BME280;12758;47.890;11.694;2022-07-23T01:00:00;94007.97;;;23.25;59.82
24610;BME280;12758;47.890;11.694;2022-07-23T01:02:27;94008.19;;;24.01;58.44
24610;BME280;12758;47.890;11.694;2022-07-23T01:04:53;94013.16;;;24.21;57.26
24610;BME280;12758;47.890;11.694;2022-07-23T01:07:20;94008.50;;;24.10;57.19
24610;BME280;12758;47.890;11.694;2022-07-23T01:09:47;94020.38;;;24.14;56.20
24610;BME280;12758;47.890;11.694;2022-07-23T01:12:14;94033.50;;;24.07;56.44
24610;BME280;12758;47.890;11.694;2022-07-23T01:14:40;94046.13;;;23.59;58.08
24610;BME280;12758;47.890;11.694;2022-07-23T01:17:06;94060.97;;;23.28;58.57
24610;BME280;12758;47.890;11.694;2022-07-23T01:19:32;94085.88;;;23.31;59.55
24610;BME280;12758;47.890;11.694;2022-07-23T01:21:59;94081.84;;;23.43;59.45
24610;BME280;12758;47.890;11.694;2022-07-23T01:24:27;94115.25;;;23.07;59.87
24610;BME280;12758;47.890;11.694;2022-07-23T01:27:29;94111.03;;;22.63;61.63
24610;BME280;12758;47.890;11.694;2022-07-23T01:29:55;94133.59;;;22.22;63.10
24610;BME280;12758;47.890;11.694;2022-07-23T01:32:22;94124.88;;;21.99;64.00
24610;BME280;12758;47.890;11.694;2022-07-23T01:34:48;94114.19;;;21.76;65.08
24610;BME280;12758;47.890;11.694;2022-07-23T01:37:14;94113.00;;;21.73;65.24
24610;BME280;12758;47.890;11.694;2022-07-23T01:39:41;94127.63;;;21.99;63.54
24610;BME280;12758;47.890;11.694;2022-07-23T01:42:07;94116.97;;;21.79;62.13
24610;BME280;12758;47.890;11.694;2022-07-23T01:44:33;94137.47;;;21.64;61.95
24610;BME280;12758;47.890;11.694;2022-07-23T01:46:59;94140.63;;;21.73;59.55
24610;BME280;12758;47.890;11.694;2022-07-23T01:49:25;94135.09;;;21.62;60.24
24610;BME280;12758;47.890;11.694;2022-07-23T01:51:51;94141.69;;;21.22;61.15
24610;BME280;12758;47.890;11.694;2022-07-23T01:54:26;94146.81;;;21.34;59.43
24610;BME280;12758;47.890;11.694;2022-07-23T01:56:53;94142.50;;;21.33;58.85
24610;BME280;12758;47.890;11.694;2022-07-23T01:59:19;94144.22;;;21.70;58.43
24610;BME280;12758;47.890;11.694;2022-07-23T02:01:45;94141.41;;;21.67;57.41
24610;BME280;12758;47.890;11.694;2022-07-23T02:04:11;94144.66;;;22.26;57.87
24610;BME280;12758;47.890;11.694;2022-07-23T02:06:37;94136.72;;;22.53;56.77
24610;BME280;12758;47.890;11.694;2022-07-23T02:09:03;94127.28;;;22.25;54.35
24610;BME280;12758;47.890;11.694;2022-07-23T02:11:29;94131.91;;;23.00;55.10
24610;BME280;12758;47.890;11.694;2022-07-23T02:13:56;94134.56;;;23.29;55.16
24610;BME280;12758;47.890;11.694;2022-07-23T02:16:21;94142.41;;;23.48;55.27
24610;BME280;12758;47.890;11.694;2022-07-23T02:18:47;94145.88;;;23.66;53.19
24610;BME280;12758;47.890;11.694;2022-07-23T02:21:13;94154.06;;;23.88;57.45
24610;BME280;12758;47.890;11.694;2022-07-23T02:23:40;94149.00;;;23.79;52.37
24610;BME280;12758;47.890;11.694;2022-07-23T02:26:06;94159.16;;;23.97;54.16
24610;BME280;12758;47.890;11.694;2022-07-23T02:28:32;94176.31;;;23.77;52.44
24610;BME280;12758;47.890;11.694;2022-07-23T02:30:58;94188.06;;;23.00;56.07
24610;BME280;12758;47.890;11.694;2022-07-23T02:33:24;94177.38;;;23.06;54.19
24610;BME280;12758;47.890;11.694;2022-07-23T02:35:50;94172.63;;;23.10;52.98
24610;BME280;12758;47.890;11.694;2022-07-23T02:38:16;94182.00;;;23.45;55.28
24610;BME280;12758;47.890;11.694;2022-07-23T02:40:42;94177.56;;;23.62;54.45
24610;BME280;12758;47.890;11.694;2022-07-23T02:43:08;94171.25;;;23.58;54.29
24610;BME280;12758;47.890;11.694;2022-07-23T02:45:34;94172.06;;;23.51;54.10
24610;BME280;12758;47.890;11.694;2022-07-23T02:48:01;94160.06;;;23.83;55.65
24610;BME280;12758;47.890;11.694;2022-07-23T02:50:27;94173.19;;;23.71;52.69
24610;BME280;12758;47.890;11.694;2022-07-23T02:52:53;94160.00;;;23.90;55.44
24610;BME280;12758;47.890;11.694;2022-07-23T02:55:19;94169.84;;;24.02;55.73
24610;BME280;12758;47.890;11.694;2022-07-23T02:57:45;94153.63;;;23.97;52.42
24610;BME280;12758;47.890;11.694;2022-07-23T03:00:12;94156.81;;;23.95;52.75
24610;BME280;12758;47.890;11.694;2022-07-23T03:02:38;94152.03;;;23.99;54.88
24610;BME280;12758;47.890;11.694;2022-07-23T03:05:05;94142.44;;;24.07;53.43
24610;BME280;12758;47.890;11.694;2022-07-23T03:07:31;94140.09;;;24.06;52.31
24610;BME280;12758;47.890;11.694;2022-07-23T03:09:57;94140.19;;;23.95;51.42
24610;BME280;12758;47.890;11.694;2022-07-23T03:12:23;94150.50;;;23.87;53.71
24610;BME280;12758;47.890;11.694;2022-07-23T03:14:49;94157.44;;;24.21;55.14
24610;BME280;12758;47.890;11.694;2022-07-23T03:17:15;94151.88;;;24.21;52.02
24610;BME280;12758;47.890;11.694;2022-07-23T03:19:41;94161.00;;;24.17;51.89
24610;BME280;12758;47.890;11.694;2022-07-23T03:22:08;94157.47;;;24.13;52.67
24610;BME280;12758;47.890;11.694;2022-07-23T03:24:34;94153.91;;;24.13;51.52
24610;BME280;12758;47.890;11.694;2022-07-23T03:27:18;94153.69;;;23.86;52.58
24610;BME280;12758;47.890;11.694;2022-07-23T03:29:44;94168.84;;;23.70;52.54
24610;BME280;12758;47.890;11.694;2022-07-23T03:32:10;94151.03;;;23.61;52.30
24610;BME280;12758;47.890;11.694;2022-07-23T03:34:36;94156.88;;;23.81;52.93
24610;BME280;12758;47.890;11.694;2022-07-23T03:37:02;94148.75;;;23.41;52.51
24610;BME280;12758;47.890;11.694;2022-07-23T03:39:29;94138.13;;;23.29;52.38
24610;BME280;12758;47.890;11.694;2022-07-23T03:41:55;94150.06;;;23.15;52.71
24610;BME280;12758;47.890;11.694;2022-07-23T03:44:21;94139.66;;;23.41;52.87
24610;BME280;12758;47.890;11.694;2022-07-23T03:46:47;94126.88;;;23.61;53.40
24610;BME280;12758;47.890;11.694;2022-07-23T03:49:13;94126.16;;;23.54;53.64
24610;BME280;12758;47.890;11.694;2022-07-23T03:51:39;94130.03;;;23.63;53.30
24610;BME280;12758;47.890;11.694;2022-07-23T03:54:05;94116.56;;;23.65;53.51
24610;BME280;12758;47.890;11.694;2022-07-23T03:56:32;94100.03;;;23.47;55.39
24610;BME280;12758;47.890;11.694;2022-07-23T03:58:58;94092.91;;;23.50;55.50
24610;BME280;12758;47.890;11.694;2022-07-23T04:01:24;94091.16;;;23.04;57.04
24610;BME280;12758;47.890;11.694;2022-07-23T04:03:50;94088.84;;;22.77;59.79
24610;BME280;12758;47.890;11.694;2022-07-23T04:06:16;94085.25;;;22.88;58.55
24610;BME280;12758;47.890;11.694;2022-07-23T04:08:42;94066.31;;;22.83;59.13
24610;BME280;12758;47.890;11.694;2022-07-23T04:11:08;94043.44;;;22.64;59.32
24610;BME280;12758;47.890;11.694;2022-07-23T04:13:34;94018.63;;;22.07;60.85
24610;BME280;12758;47.890;11.694;2022-07-23T04:16:00;93976.41;;;21.92;62.04
24610;BME280;12758;47.890;11.694;2022-07-23T04:18:26;93941.66;;;21.88;62.69
24610;BME280;12758;47.890;11.694;2022-07-23T04:20:53;93935.38;;;21.76;63.53
24610;BME280;12758;47.890;11.694;2022-07-23T04:23:19;93970.50;;;21.51;64.74
24610;BME280;12758;47.890;11.694;2022-07-23T04:25:45;93951.16;;;21.29;66.81
24610;BME280;12758;47.890;11.694;2022-07-23T04:28:11;93942.44;;;20.77;68.90
24610;BME280;12758;47.890;11.694;2022-07-23T04:30:38;93938.38;;;20.50;70.51
24610;BME280;12758;47.890;11.694;2022-07-23T04:33:04;93942.31;;;20.45;70.62
24610;BME280;12758;47.890;11.694;2022-07-23T04:35:32;93939.91;;;20.36;71.62
24610;BME280;12758;47.890;11.694;2022-07-23T04:37:58;93935.94;;;20.30;71.20
24610;BME280;12758;47.890;11.694;2022-07-23T04:40:24;93934.38;;;20.29;70.58
24610;BME280;12758;47.890;11.694;2022-07-23T04:42:50;93939.22;;;20.61;69.31
24610;BME280;12758;47.890;11.694;2022-07-23T04:45:17;93932.84;;;20.50;69.48
24610;BME280;12758;47.890;11.694;2022-07-23T04:47:43;93940.06;;;20.79;67.69
24610;BME280;12758;47.890;11.694;2022-07-23T04:50:09;93932.91;;;20.60;67.34
24610;BME280;12758;47.890;11.694;2022-07-23T04:52:35;93932.84;;;20.50;68.42
24610;BME280;12758;47.890;11.694;2022-07-23T04:55:02;93926.59;;;20.53;68.05
24610;BME280;12758;47.890;11.694;2022-07-23T04:57:28;93921.09;;;20.53;67.62
24610;BME280;12758;47.890;11.694;2022-07-23T04:59:54;93924.28;;;20.69;67.25
24610;BME280;12758;47.890;11.694;2022-07-23T05:02:20;93934.56;;;21.11;66.48
24610;BME280;12758;47.890;11.694;2022-07-23T05:04:46;93938.56;;;21.32;66.36
24610;BME280;12758;47.890;11.694;2022-07-23T05:07:12;93951.97;;;21.55;65.18
24610;BME280;12758;47.890;11.694;2022-07-23T05:09:38;93963.78;;;21.70;64.46
24610;BME280;12758;47.890;11.694;2022-07-23T05:12:05;93976.44;;;21.74;64.07
24610;BME280;12758;47.890;11.694;2022-07-23T05:14:31;93986.94;;;20.76;66.38
24610;BME280;12758;47.890;11.694;2022-07-23T05:16:57;93996.59;;;20.30;70.71
24610;BME280;12758;47.890;11.694;2022-07-23T05:19:23;93985.56;;;20.30;70.26
24610;BME280;12758;47.890;11.694;2022-07-23T05:21:49;93984.03;;;20.36;69.35
24610;BME280;12758;47.890;11.694;2022-07-23T05:24:15;93978.00;;;21.72;66.34
24610;BME280;12758;47.890;11.694;2022-07-23T05:26:41;93985.03;;;22.30;64.06
24610;BME280;12758;47.890;11.694;2022-07-23T05:29:07;93987.31;;;22.64;62.86
24610;BME280;12758;47.890;11.694;2022-07-23T05:31:33;93997.09;;;22.79;62.10
24610;BME280;12758;47.890;11.694;2022-07-23T05:33:59;94003.09;;;22.70;63.60
24610;BME280;12758;47.890;11.694;2022-07-23T05:36:25;94027.75;;;21.93;67.90
24610;BME280;12758;47.890;11.694;2022-07-23T05:38:52;94031.69;;;21.81;70.76
24610;BME280;12758;47.890;11.694;2022-07-23T05:41:18;94020.53;;;22.60;63.67
24610;BME280;12758;47.890;11.694;2022-07-23T05:43:44;94008.88;;;23.01;61.82
24610;BME280;12758;47.890;11.694;2022-07-23T05:46:10;94000.84;;;23.24;61.10
24610;BME280;12758;47.890;11.694;2022-07-23T05:48:36;94003.63;;;23.24;61.31
24610;BME280;12758;47.890;11.694;2022-07-23T05:51:02;94001.88;;;23.45;60.49
24610;BME280;12758;47.890;11.694;2022-07-23T05:53:31;93998.63;;;23.57;59.67
24610;BME280;12758;47.890;11.694;2022-07-23T05:55:58;94003.34;;;23.64;59.79
24610;BME280;12758;47.890;11.694;2022-07-23T05:58:24;93996.97;;;23.70;59.68
24610;BME280;12758;47.890;11.694;2022-07-23T06:00:51;94005.25;;;23.74;59.26
24610;BME280;12758;47.890;11.694;2022-07-23T06:03:17;94011.63;;;23.71;60.41
24610;BME280;12758;47.890;11.694;2022-07-23T06:05:43;94009.50;;;23.30;63.63
24610;BME280;12758;47.890;11.694;2022-07-23T06:08:09;94008.97;;;23.53;60.31
24610;BME280;12758;47.890;11.694;2022-07-23T06:10:35;94018.13;;;23.43;62.20
24610;BME280;12758;47.890;11.694;2022-07-23T06:13:02;94030.56;;;23.13;63.88
24610;BME280;12758;47.890;11.694;2022-07-23T06:15:28;94028.34;;;22.83;65.15
24610;BME280;12758;47.890;11.694;2022-07-23T06:17:54;94026.59;;;23.21;61.58
24610;BME280;12758;47.890;11.694;2022-07-23T06:20:20;94039.16;;;23.33;60.45
24610;BME280;12758;47.890;11.694;2022-07-23T06:22:46;94051.72;;;23.52;60.13
24610;BME280;12758;47.890;11.694;2022-07-23T06:25:12;94057.72;;;23.40;59.54
24610;BME280;12758;47.890;11.694;2022-07-23T06:27:38;94063.41;;;23.11;60.07
24610;BME280;12758;47.890;11.694;2022-07-23T06:30:07;94072.00;;;23.35;60.38
24610;BME280;12758;47.890;11.694;2022-07-23T06:32:33;94077.44;;;22.61;62.37
24610;BME280;12758;47.890;11.694;2022-07-23T06:34:59;94096.38;;;22.73;61.10
24610;BME280;12758;47.890;11.694;2022-07-23T06:37:25;94093.97;;;22.75;62.32
24610;BME280;12758;47.890;11.694;2022-07-23T06:39:51;94094.81;;;22.65;59.99
24610;BME280;12758;47.890;11.694;2022-07-23T06:42:17;94108.28;;;22.13;62.13
24610;BME280;12758;47.890;11.694;2022-07-23T06:44:43;94111.47;;;22.33;61.95
24610;BME280;12758;47.890;11.694;2022-07-23T06:47:10;94105.13;;;22.40;61.15
24610;BME280;12758;47.890;11.694;2022-07-23T06:49:36;94094.84;;;22.44;61.45
24610;BME280;12758;47.890;11.694;2022-07-23T06:52:02;94089.25;;;22.79;61.81
24610;BME280;12758;47.890;11.694;2022-07-23T06:54:28;94079.81;;;22.59;60.83
24610;BME280;12758;47.890;11.694;2022-07-23T06:56:54;94084.50;;;22.69;61.70
24610;BME280;12758;47.890;11.694;2022-07-23T06:59:20;94068.75;;;22.52;60.52
24610;BME280;12758;47.890;11.694;2022-07-23T07:01:46;94079.84;;;22.45;60.91
24610;BME280;12758;47.890;11.694;2022-07-23T07:04:13;94079.84;;;22.45;61.04
24610;BME280;12758;47.890;11.694;2022-07-23T07:06:39;94075.91;;;22.31;61.42
24610;BME280;12758;47.890;11.694;2022-07-23T07:09:05;94081.84;;;22.19;62.00
24610;BME280;12758;47.890;11.694;2022-07-23T07:11:31;94078.69;;;22.35;61.49
24610;BME280;12758;47.890;11.694;2022-07-23T07:13:57;94069.22;;;22.25;62.05
24610;BME280;12758;47.890;11.694;2022-07-23T07:16:23;94071.94;;;22.43;62.49
24610;BME280;12758;47.890;11.694;2022-07-23T07:18:49;94071.91;;;22.47;63.49
24610;BME280;12758;47.890;11.694;2022-07-23T07:21:16;94065.25;;;22.23;64.45
24610;BME280;12758;47.890;11.694;2022-07-23T07:23:42;94071.19;;;22.28;64.46
24610;BME280;12758;47.890;11.694;2022-07-23T07:26:08;94083.44;;;22.35;64.88
24610;BME280;12758;47.890;11.694;2022-07-23T07:28:34;94073.94;;;22.36;64.46
24610;BME280;12758;47.890;11.694;2022-07-23T07:31:00;94079.06;;;22.05;65.69
24610;BME280;12758;47.890;11.694;2022-07-23T07:33:26;94088.53;;;22.04;66.15
24610;BME280;12758;47.890;11.694;2022-07-23T07:35:52;94087.38;;;22.19;65.11
24610;BME280;12758;47.890;11.694;2022-07-23T07:38:19;94086.59;;;22.22;65.04
24610;BME280;12758;47.890;11.694;2022-07-23T07:40:45;94092.50;;;22.17;65.10
24610;BME280;12758;47.890;11.694;2022-07-23T07:43:11;94087.78;;;22.18;65.70
24610;BME280;12758;47.890;11.694;2022-07-23T07:45:37;94090.91;;;22.34;64.95
24610;BME280;12758;47.890;11.694;2022-07-23T07:48:04;94101.19;;;22.37;64.20
24610;BME280;12758;47.890;11.694;2022-07-23T07:50:30;94094.09;;;22.22;64.79
24610;BME280;12758;47.890;11.694;2022-07-23T07:52:56;94096.47;;;22.23;65.05
24610;BME280;12758;47.890;11.694;2022-07-23T07:55:23;94100.44;;;22.22;65.19
24610;BME280;12758;47.890;11.694;2022-07-23T07:57:49;94096.44;;;22.34;64.64
24610;BME280;12758;47.890;11.694;2022-07-23T08:00:15;94107.91;;;22.32;64.71
24610;BME280;12758;47.890;11.694;2022-07-23T08:02:43;94112.25;;;22.48;63.92
24610;BME280;12758;47.890;11.694;2022-07-23T08:05:09;94108.31;;;22.42;65.08
24610;BME280;12758;47.890;11.694;2022-07-23T08:07:35;94100.00;;;22.24;64.63
24610;BME280;12758;47.890;11.694;2022-07-23T08:10:03;94110.69;;;22.32;64.91
24610;BME280;12758;47.890;11.694;2022-07-23T08:12:38;94113.06;;;22.20;65.26
24610;BME280;12758;47.890;11.694;2022-07-23T08:15:05;94111.44;;;22.44;64.39
24610;BME280;12758;47.890;11.694;2022-07-23T08:17:31;94107.44;;;22.73;63.34
24610;BME280;12758;47.890;11.694;2022-07-23T08:19:57;94111.38;;;22.79;63.08
24610;BME280;12758;47.890;11.694;2022-07-23T08:22:23;94114.94;;;22.84;62.73
24610;BME280;12758;47.890;11.694;2022-07-23T08:24:49;94104.25;;;22.82;62.77
24610;BME280;12758;47.890;11.694;2022-07-23T08:27:15;94107.44;;;22.73;62.88
24610;BME280;12758;47.890;11.694;2022-07-23T08:29:42;94116.16;;;22.68;62.72
24610;BME280;12758;47.890;11.694;2022-07-23T08:32:08;94121.66;;;22.75;62.72
24610;BME280;12758;47.890;11.694;2022-07-23T08:34:34;94107.47;;;22.70;62.97
24610;BME280;12758;47.890;11.694;2022-07-23T08:37:00;94104.28;;;22.71;62.38
24610;BME280;12758;47.890;11.694;2022-07-23T08:39:26;94104.28;;;22.75;62.38
24610;BME280;12758;47.890;11.694;2022-07-23T08:41:52;94109.81;;;22.71;62.16
24610;BME280;12758;47.890;11.694;2022-07-23T08:44:18;94114.94;;;22.80;62.38
24610;BME280;12758;47.890;11.694;2022-07-23T08:46:45;94104.28;;;22.71;62.84
24610;BME280;12758;47.890;11.694;2022-07-23T08:49:11;94111.41;;;22.69;62.65
24610;BME280;12758;47.890;11.694;2022-07-23T08:51:38;94119.34;;;22.63;63.00
24610;BME280;12758;47.890;11.694;2022-07-23T08:54:04;94119.31;;;22.74;62.69
24610;BME280;12758;47.890;11.694;2022-07-23T08:56:30;94123.28;;;22.55;63.07
24610;BME280;12758;47.890;11.694;2022-07-23T08:58:56;94121.69;;;22.68;63.52
24610;BME280;12758;47.890;11.694;2022-07-23T09:01:23;94131.56;;;22.66;62.98
24610;BME280;12758;47.890;11.694;2022-07-23T09:03:49;94125.63;;;22.74;62.84
24610;BME280;12758;47.890;11.694;2022-07-23T09:06:15;94135.13;;;22.59;63.47
24610;BME280;12758;47.890;11.694;2022-07-23T09:08:42;94142.28;;;22.60;63.04
24610;BME280;12758;47.890;11.694;2022-07-23T09:11:10;94145.41;;;22.76;62.37
24610;BME280;12758;47.890;11.694;2022-07-23T09:13:38;94142.22;;;22.74;61.80
24610;BME280;12758;47.890;11.694;2022-07-23T09:16:06;94153.34;;;22.60;63.55
24610;BME280;12758;47.890;11.694;2022-07-23T09:18:35;94155.69;;;22.58;63.67
24610;BME280;12758;47.890;11.694;2022-07-23T09:21:15;94152.53;;;22.70;62.54
24610;BME280;12758;47.890;11.694;2022-07-23T09:23:43;94150.19;;;22.37;63.28
24610;BME280;12758;47.890;11.694;2022-07-23T09:26:23;94139.13;;;22.51;62.80
24610;BME280;12758;47.890;11.694;2022-07-23T09:28:51;94145.44;;;22.33;63.22
24610;BME280;12758;47.890;11.694;2022-07-23T09:31:18;94149.00;;;22.45;63.74
24610;BME280;12758;47.890;11.694;2022-07-23T09:33:44;94147.81;;;22.46;63.84
24610;BME280;12758;47.890;11.694;2022-07-23T09:36:11;94150.94;;;22.66;63.34
24610;BME280;12758;47.890;11.694;2022-07-23T09:38:48;94152.16;;;22.36;65.21
24610;BME280;12758;47.890;11.694;2022-07-23T09:41:14;94150.16;;;22.58;65.05
24610;BME280;12758;47.890;11.694;2022-07-23T09:43:40;94134.75;;;22.57;65.85
24610;BME280;12758;47.890;11.694;2022-07-23T09:46:17;94147.00;;;22.56;66.15
24610;BME280;12758;47.890;11.694;2022-07-23T09:48:43;94154.13;;;22.57;65.87
24610;BME280;12758;47.890;11.694;2022-07-23T09:51:09;94156.88;;;22.68;64.99
24610;BME280;12758;47.890;11.694;2022-07-23T09:53:35;94157.28;;;22.73;65.05
24610;BME280;12758;47.890;11.694;2022-07-23T09:56:01;94157.25;;;22.63;64.97
24610;BME280;12758;47.890;11.694;2022-07-23T09:58:27;94156.47;;;22.62;64.72
24610;BME280;12758;47.890;11.694;2022-07-23T10:00:54;94142.19;;;22.89;62.93
24610;BME280;12758;47.890;11.694;2022-07-23T10:03:21;94129.97;;;22.83;63.43
24610;BME280;12758;47.890;11.694;2022-07-23T10:05:49;94143.78;;;22.97;62.53
24610;BME280;12758;47.890;11.694;2022-07-23T10:08:16;94135.06;;;23.02;62.41
24610;BME280;12758;47.890;11.694;2022-07-23T10:10:44;94136.22;;;23.05;61.75
24610;BME280;12758;47.890;11.694;2022-07-23T10:13:12;94140.59;;;23.09;61.83
24610;BME280;12758;47.890;11.694;2022-07-23T10:15:57;94137.00;;;23.12;61.74
24610;BME280;12758;47.890;11.694;2022-07-23T10:18:23;94137.38;;;23.21;61.69
24610;BME280;12758;47.890;11.694;2022-07-23T10:20:49;94142.88;;;23.29;60.98
24610;BME280;12758;47.890;11.694;2022-07-23T10:23:18;94138.09;;;23.33;60.66
24610;BME280;12758;47.890;11.694;2022-07-23T10:25:51;94128.59;;;23.41;61.10
24610;BME280;12758;47.890;11.694;2022-07-23T10:28:33;94117.06;;;23.46;60.90
24610;BME280;12758;47.890;11.694;2022-07-23T10:31:10;94115.50;;;23.45;61.00
24610;BME280;12758;47.890;11.694;2022-07-23T10:33:45;94116.66;;;23.47;60.85
24610;BME280;12758;47.890;11.694;2022-07-23T10:36:18;94119.06;;;23.42;60.93
24610;BME280;12758;47.890;11.694;2022-07-23T10:38:58;94134.13;;;23.41;60.76
24610;BME280;12758;47.890;11.694;2022-07-23T10:41:33;94132.56;;;23.33;60.63
24610;BME280;12758;47.890;11.694;2022-07-23T10:44:08;94129.44;;;23.31;60.14
24610;BME280;12758;47.890;11.694;2022-07-23T10:46:34;94126.25;;;23.29;60.20
24610;BME280;12758;47.890;11.694;2022-07-23T10:49:24;94131.03;;;23.28;61.14
24610;BME280;12758;47.890;11.694;2022-07-23T10:52:19;94143.69;;;23.22;61.16
24610;BME280;12758;47.890;11.694;2022-07-23T10:54:47;94133.34;;;23.33;60.48
24610;BME280;12758;47.890;11.694;2022-07-23T10:57:15;94137.34;;;23.29;62.11
24610;BME280;12758;47.890;11.694;2022-07-23T11:00:12;94134.25;;;23.12;62.00
24610;BME280;12758;47.890;11.694;2022-07-23T11:02:39;94138.19;;;23.08;60.39
24610;BME280;12758;47.890;11.694;2022-07-23T11:05:07;94134.25;;;23.09;61.39
24610;BME280;12758;47.890;11.694;2022-07-23T11:07:33;94127.88;;;23.22;61.24
24610;BME280;12758;47.890;11.694;2022-07-23T11:10:00;94127.81;;;23.30;61.13
24610;BME280;12758;47.890;11.694;2022-07-23T11:12:34;94133.34;;;23.40;60.16
24610;BME280;12758;47.890;11.694;2022-07-23T11:15:03;94138.84;;;23.44;60.13
24610;BME280;12758;47.890;11.694;2022-07-23T11:17:31;94138.06;;;23.47;59.82
24610;BME280;12758;47.890;11.694;2022-07-23T11:20:20;94138.44;;;23.45;60.21
24610;BME280;12758;47.890;11.694;2022-07-23T11:22:48;94133.69;;;23.46;60.33
24610;BME280;12758;47.890;11.694;2022-07-23T11:25:29;94131.72;;;23.50;58.97
24610;BME280;12758;47.890;11.694;2022-07-23T11:28:11;94129.03;;;23.29;59.97
24610;BME280;12758;47.890;11.694;2022-07-23T11:30:39;94127.91;;;23.15;59.62
24610;BME280;12758;47.890;11.694;2022-07-23T11:33:19;94129.44;;;23.23;59.56
24610;BME280;12758;47.890;11.694;2022-07-23T11:35:48;94128.28;;;23.17;60.83
24610;BME280;12758;47.890;11.694;2022-07-23T11:38:16;94127.53;;;23.06;61.41
24610;BME280;12758;47.890;11.694;2022-07-23T11:40:44;94131.91;;;23.00;60.85
24610;BME280;12758;47.890;11.694;2022-07-23T11:43:11;94135.00;;;23.16;59.26
24610;BME280;12758;47.890;11.694;2022-07-23T11:45:39;94119.97;;;23.24;59.39
24610;BME280;12758;47.890;11.694;2022-07-23T11:48:08;94125.50;;;23.17;60.32
24610;BME280;12758;47.890;11.694;2022-07-23T11:50:36;94125.47;;;23.32;58.96
24610;BME280;12758;47.890;11.694;2022-07-23T11:53:02;94123.84;;;23.38;62.19
24610;BME280;12758;47.890;11.694;2022-07-23T11:55:28;94126.63;;;23.38;59.52
24610;BME280;12758;47.890;11.694;2022-07-23T11:57:55;94125.38;;;23.46;60.26
24610;BME280;12758;47.890;11.694;2022-07-23T12:00:23;94113.53;;;23.42;60.71
24610;BME280;12758;47.890;11.694;2022-07-23T12:02:51;94116.75;;;23.30;59.86
24610;BME280;12758;47.890;11.694;2022-07-23T12:05:18;94112.72;;;23.45;60.47
24610;BME280;12758;47.890;11.694;2022-07-23T12:07:46;94115.88;;;23.47;59.17
24610;BME280;12758;47.890;11.694;2022-07-23T12:10:16;94111.50;;;23.53;60.71
24610;BME280;12758;47.890;11.694;2022-07-23T12:12:44;94111.09;;;23.51;61.17
24610;BME280;12758;47.890;11.694;2022-07-23T12:15:11;94111.84;;;23.59;60.66
24610;BME280;12758;47.890;11.694;2022-07-23T12:17:39;94099.97;;;23.58;59.98
24610;BME280;12758;47.890;11.694;2022-07-23T12:20:08;94106.31;;;23.55;61.98
24610;BME280;12758;47.890;11.694;2022-07-23T12:22:36;94103.09;;;23.71;64.24
24610;BME280;12758;47.890;11.694;2022-07-23T12:25:05;94103.81;;;23.79;60.20
24610;BME280;12758;47.890;11.694;2022-07-23T12:27:32;94100.56;;;23.91;61.30
24610;BME280;12758;47.890;11.694;2022-07-23T12:29:58;94098.66;;;23.81;58.05
24610;BME280;12758;47.890;11.694;2022-07-23T12:32:25;94104.72;;;23.61;58.97
24610;BME280;12758;47.890;11.694;2022-07-23T12:35:04;94101.59;;;23.52;57.65
24610;BME280;12758;47.890;11.694;2022-07-23T12:37:32;94099.91;;;23.65;57.62
24610;BME280;12758;47.890;11.694;2022-07-23T12:42:42;94101.59;;;23.52;59.13
24610;BME280;12758;47.890;11.694;2022-07-23T12:45:09;94094.59;;;23.30;58.85
24610;BME280;12758;47.890;11.694;2022-07-23T12:47:57;94096.19;;;23.27;59.61
24610;BME280;12758;47.890;11.694;2022-07-23T12:50:41;94099.38;;;23.22;59.02
24610;BME280;12758;47.890;11.694;2022-07-23T12:53:11;94104.91;;;23.25;59.54
24610;BME280;12758;47.890;11.694;2022-07-23T12:55:38;94098.59;;;23.25;58.18